Terminal Aerodrome Forecast
Issued by NWS

Home | Current Version | Previous Version | Text Only | Print | Product List | Glossary On
Versions: 1 2 3 4 5 6 7 8 9 10 11 12 13 14 15 16 17 18
000
FTUS43 KBIS 241727
TAFMOT
TAF
KMOT 241727Z 2418/2518 35011KT P6SM VCSH SCT015 OVC025
     FM250600 33005KT P6SM BKN020
     FM250800 33005KT P6SM BKN010=

USA.gov is the U.S. government's official web portal to all federal, state and local government web resources and services.